地図

経路データ

SID SEASON NUMBER BASIN SUBBASIN NAME ISO_TIME NATURE LAT LON WMO_WIND WMO_PRES WMO_AGENCY TRACK_TYPE DIST2LAND LANDFALL IFLAG USA_AGENCY USA_ATCF_ID USA_LAT USA_LON USA_RECORD USA_STATUS USA_WIND USA_PRES USA_SSHS USA_R34_NE USA_R34_SE USA_R34_SW USA_R34_NW USA_R50_NE USA_R50_SE USA_R50_SW USA_R50_NW USA_R64_NE USA_R64_SE USA_R64_SW USA_R64_NW USA_POCI USA_ROCI USA_RMW USA_EYE TOKYO_LAT TOKYO_LON TOKYO_GRADE TOKYO_WIND TOKYO_PRES TOKYO_R50_DIR TOKYO_R50_LONG TOKYO_R50_SHORT TOKYO_R30_DIR TOKYO_R30_LONG TOKYO_R30_SHORT TOKYO_LAND CMA_LAT CMA_LON CMA_CAT CMA_WIND CMA_PRES HKO_LAT HKO_LON HKO_CAT HKO_WIND HKO_PRES NEWDELHI_LAT NEWDELHI_LON NEWDELHI_GRADE NEWDELHI_WIND NEWDELHI_PRES NEWDELHI_CI NEWDELHI_DP NEWDELHI_POCI REUNION_LAT REUNION_LON REUNION_TYPE REUNION_WIND REUNION_PRES REUNION_TNUM REUNION_CI REUNION_RMW REUNION_R34_NE REUNION_R34_SE REUNION_R34_SW REUNION_R34_NW REUNION_R50_NE REUNION_R50_SE REUNION_R50_SW REUNION_R50_NW REUNION_R64_NE REUNION_R64_SE REUNION_R64_SW REUNION_R64_NW BOM_LAT BOM_LON BOM_TYPE BOM_WIND BOM_PRES BOM_TNUM BOM_CI BOM_RMW BOM_R34_NE BOM_R34_SE BOM_R34_SW BOM_R34_NW BOM_R50_NE BOM_R50_SE BOM_R50_SW BOM_R50_NW BOM_R64_NE BOM_R64_SE BOM_R64_SW BOM_R64_NW BOM_ROCI BOM_POCI BOM_EYE BOM_POS_METHOD BOM_PRES_METHOD NADI_LAT NADI_LON NADI_CAT NADI_WIND NADI_PRES WELLINGTON_LAT WELLINGTON_LON WELLINGTON_WIND WELLINGTON_PRES DS824_LAT DS824_LON DS824_STAGE DS824_WIND DS824_PRES TD9636_LAT TD9636_LON TD9636_STAGE TD9636_WIND TD9636_PRES TD9635_LAT TD9635_LON TD9635_WIND TD9635_PRES TD9635_ROCI NEUMANN_LAT NEUMANN_LON NEUMANN_CLASS NEUMANN_WIND NEUMANN_PRES MLC_LAT MLC_LON MLC_CLASS MLC_WIND MLC_PRES USA_GUST BOM_GUST BOM_GUST_PER REUNION_GUST REUNION_GUST_PER USA_SEAHGT USA_SEARAD_NE USA_SEARAD_SE USA_SEARAD_SW USA_SEARAD_NW STORM_SPEED STORM_DIR
1974301S08105 1975 124 SI WA NORAH 1974-10-28 00:00:00 TS -8.00000 105.100 20 1006 bom main 134 127 ______O__O__O_ -1 -8.00000 105.100 20 20 1006 -8.00000 105.100 TC 15 1006 -8.00000 105.100 TC 15 1006 5 282
1974301S08105 1975 124 SI WA NORAH 1974-10-28 03:00:00 TS -7.94169 104.832 20 1006 bom main 130 130 ______O__P__P_ -1 -7.90000 104.800 20 20 1006 -7.96254 104.848 TC 15 1006 -7.96254 104.848 TC 15 1006 5 281
1974301S08105 1975 124 SI WA NORAH 1974-10-28 06:00:00 TS -7.90000 104.600 20 1006 bom main 139 136 ______O__O__O_ -1 -7.90000 104.600 20 20 1006 -7.90000 104.600 TC 15 1006 -7.90000 104.600 TC 15 1006 5 286
1974301S08105 1975 124 SI WA NORAH 1974-10-28 09:00:00 TS -7.79998 104.338 20 1006 bom main 149 149 ______O__P__P_ -1 -7.80000 104.300 20 20 1006 -7.79997 104.357 TC 15 1006 -7.79997 104.357 TC 15 1006 5 292
1974301S08105 1975 124 SI WA NORAH 1974-10-28 12:00:00 TS -7.70000 104.100 20 1006 bom main 157 157 ______O__O__O_ -1 -7.70000 104.100 20 20 1006 -7.70000 104.100 TC 15 1006 -7.70000 104.100 TC 15 1006 6 285
1974301S08105 1975 124 SI WA NORAH 1974-10-28 15:00:00 TS -7.65669 103.790 20 1006 bom main 184 184 ______O__P__P_ -1 -7.70000 103.800 20 20 1006 -7.63503 103.785 TC 15 1006 -7.63503 103.785 TC 15 1006 6 280
1974301S08105 1975 124 SI WA NORAH 1974-10-28 18:00:00 TS -7.60000 103.500 20 1006 bom main 208 208 ______O__O__O_ -1 -7.60000 103.500 20 20 1006 -7.60000 103.500 TC 15 1006 -7.60000 103.500 TC 15 1006 4 279
1974301S08105 1975 124 SI WA NORAH 1974-10-28 21:00:00 TS -7.59490 103.392 20 1006 bom main 218 218 ______O__P__P_ -1 -7.60000 103.400 20 20 1006 -7.59235 103.388 TC 15 1006 -7.59235 103.388 TC 15 1006 3 270
1974301S08105 1975 124 SI WA NORAH 1974-10-29 00:00:00 TS -7.60000 103.200 20 1006 bom main 238 238 ______O__O__O_ -1 -7.60000 103.200 20 20 1006 -7.60000 103.200 TC 15 1006 -7.60000 103.200 TC 15 1006 7 271
1974301S08105 1975 124 SI WA NORAH 1974-10-29 03:00:00 TS -7.58008 102.668 20 1006 bom main 283 283 ______O__P__P_ -1 -7.60000 102.600 20 20 1006 -7.57013 102.702 TC 15 1006 -7.57013 102.702 TC 15 1006 11 270
1974301S08105 1975 124 SI WA NORAH 1974-10-29 06:00:00 TS -7.60000 102.100 20 1006 bom main 330 330 ______O__O__O_ -1 -7.60000 102.100 20 20 1006 1.00000 -7.60000 102.100 TC 15 1006 -7.60000 102.100 TC 15 1006 11 261
1974301S08105 1975 124 SI WA NORAH 1974-10-29 09:00:00 TS -7.74995 101.562 20 1005 bom main 375 375 ______O__P__P_ -1 -7.80000 101.500 20 20 1005 1.00000 -7.72492 101.592 TC 17 1005 -7.72492 101.592 TC 17 1005 11 248
1974301S08105 1975 124 SI WA NORAH 1974-10-29 12:00:00 TS -8.00000 101.100 20 1005 bom main 433 433 ______O__O__O_ -1 -8.00000 101.100 20 20 1005 1.00000 -8.00000 101.100 TC 20 1005 -8.00000 101.100 TC 20 1005 12 233
1974301S08105 1975 124 SI WA NORAH 1974-10-29 15:00:00 TS -8.47994 100.572 25 1004 bom main 510 510 ______O__P__P_ -1 -8.50000 100.500 20 25 1004 1.50000 -8.46991 100.608 TC 22 1004 -8.46991 100.608 TC 22 1004 14 225
1974301S08105 1975 124 SI WA NORAH 1974-10-29 18:00:00 TS -9.00000 100.100 25 1003 bom main 588 588 ______O__O__O_ -1 -9.00000 100.100 20 25 1003 1.50000 -9.00000 100.100 TC 25 1003 -9.00000 100.100 TC 25 1003 14 226
1974301S08105 1975 124 SI WA NORAH 1974-10-29 21:00:00 TS -9.44500 99.5618 25 1003 bom main 657 657 ______O__P__P_ -1 -9.40000 99.6000 20 25 1003 1.50000 -9.46750 99.5426 TC 25 1003 -9.46750 99.5426 TC 25 1003 14 234
1974301S08105 1975 124 SI WA NORAH 1974-10-30 00:00:00 TS -9.80000 99.0000 25 1003 bom main 733 733 ______O__O__O_ -1 -9.80000 99.0000 20 25 1003 1.50000 -9.80000 99.0000 TC 25 1003 -9.80000 99.0000 TC 25 1003 11 247
1974301S08105 1975 124 SI WA NORAH 1974-10-30 03:00:00 TS -9.85823 98.5615 25 1002 bom main 768 768 ______O__P__P_ -1 -9.80000 98.6000 20 25 1002 2.00000 2.00000 -9.88734 98.5422 TC 27 1001 -9.88734 98.5422 TC 27 1001 9 264
1974301S08105 1975 124 SI WA NORAH 1974-10-30 06:00:00 TS -9.90000 98.1000 25 1000 bom main 804 804 ______O__O__O_ -1 -9.90000 98.1000 20 25 1000 2.00000 -9.90000 98.1000 TC 30 1000 -9.90000 98.1000 TC 30 1000 10 260
1974301S08105 1975 124 SI WA NORAH 1974-10-30 09:00:00 TS -10.0183 97.6050 25 999 bom main 849 849 ______O__P__P_ -1 -10.0000 97.6000 20 25 999 2.00000 -10.0275 97.6075 TC 32 998 -10.0275 97.6075 TC 32 998 10 253
1974301S08105 1975 124 SI WA NORAH 1974-10-30 12:00:00 TS -10.2000 97.1000 30 997 bom main 901 901 ______O__O__O_ -1 -10.2000 97.1000 20 30 997 2.50000 -10.2000 97.1000 TC 35 997 -10.2000 97.1000 TC 35 997 11 250
1974301S08105 1975 124 SI WA NORAH 1974-10-30 15:00:00 TS -10.3849 96.6049 30 996 bom main 953 953 ______O__P__P_ -1 -10.4000 96.6000 20 30 996 2.50000 -10.3774 96.6074 TC 37 996 -10.3774 96.6074 TC 37 996 11 248
1974301S08105 1975 124 SI WA NORAH 1974-10-30 18:00:00 TS -10.6000 96.1000 35 995 bom main 1007 1007 ______O__O__O_ -1 -10.6000 96.1000 30 35 995 3.00000 -10.6000 96.1000 TC 40 995 -10.6000 96.1000 TC 40 995 12 245
1974301S08105 1975 124 SI WA NORAH 1974-10-30 21:00:00 TS -10.8767 95.5185 35 994 bom main 1077 1077 ______O__P__P_ -1 -10.8000 95.5000 30 35 994 3.00000 -10.9151 95.5277 TC 40 994 -10.9151 95.5277 TC 40 994 12 241
1974301S08105 1975 124 SI WA NORAH 1974-10-31 00:00:00 TS -11.2000 95.0000 40 994 bom main 1139 1139 ______O__O__O_ -1 -11.2000 95.0000 30 40 994 3.00000 -11.2000 95.0000 TC 40 994 -11.2000 95.0000 TC 40 994 10 243
1974301S08105 1975 124 SI WA NORAH 1974-10-31 03:00:00 TS -11.3332 94.6231 40 992 bom main 1174 1174 ______O__P__P_ -1 -11.4000 94.6000 30 40 992 3.00000 3.00000 -11.2998 94.6347 TC 42 992 -11.2998 94.6347 TC 42 992 7 254
1974301S08105 1975 124 SI WA NORAH 1974-10-31 06:00:00 TS -11.4000 94.3000 45 990 bom main 1199 1199 ______O__O__O_ -1 -11.4000 94.3000 30 45 990 3.00000 -11.4000 94.3000 TC 45 990 -11.4000 94.3000 TC 45 990 8 244
1974301S08105 1975 124 SI WA NORAH 1974-10-31 09:00:00 TS -11.6950 93.8768 50 989 bom main 1248 1248 ______O__P__P_ -1 -11.7000 93.9000 30 50 989 3.50000 -11.6925 93.8652 TC 47 988 -11.6925 93.8652 TC 47 988 11 236
1974301S08105 1975 124 SI WA NORAH 1974-10-31 12:00:00 TS -12.0000 93.4000 50 987 bom main 1303 1303 ______O__O__O_ -1 -12.0000 93.4000 30 50 987 3.50000 -12.0000 93.4000 TC 50 987 -12.0000 93.4000 TC 50 987 10 241
1974301S08105 1975 124 SI WA NORAH 1974-10-31 15:00:00 TS -12.1866 92.9666 50 985 bom main 1344 1344 ______O__P__P_ -1 -12.2000 93.0000 30 50 985 3.50000 -12.1799 92.9499 TC 52 985 -12.1799 92.9499 TC 52 985 9 251
1974301S08105 1975 124 SI WA NORAH 1974-10-31 18:00:00 TS -12.3000 92.5000 55 983 bom main 1381 1381 ______O__O__O_ -1 -12.3000 92.5000 30 55 983 4.00000 -12.3000 92.5000 TC 55 983 -12.3000 92.5000 TC 55 983 9 255
1974301S08105 1975 124 SI WA NORAH 1974-10-31 21:00:00 TS -12.4100 92.0950 55 982 bom main 1414 1414 ______O__P__P_ -1 -12.4000 92.2000 30 55 982 4.00000 -12.4150 92.0425 TC 57 982 -12.4150 92.0425 TC 57 982 9 257
1974301S08105 1975 124 SI WA NORAH 1974-11-01 00:00:00 TS -12.5000 91.6000 60 981 bom main 1453 1453 ______O__O__O_ -1 -12.5000 91.6000 30 60 981 4.00000 -12.5000 91.6000 TC 60 981 -12.5000 91.6000 TC 60 981 8 259
1974301S08105 1975 124 SI WA NORAH 1974-11-01 03:00:00 TS -12.5666 91.2716 60 981 bom main 1481 1481 ______O__P__P_ -1 -12.6000 91.4000 30 60 981 4.00000 4.00000 -12.5498 91.2074 TC 57 981 -12.5498 91.2074 TC 60 981 8 263
1974301S08105 1975 124 SI WA NORAH 1974-11-01 06:00:00 TS -12.6000 90.8000 60 982 bom main 1512 1512 ______O__O__O_ -1 -12.6000 90.8000 30 60 982 4.00000 -12.6000 90.8000 TC 55 982 -12.6000 90.8000 TC 60 982 9 262
1974301S08105 1975 124 SI WA NORAH 1974-11-01 09:00:00 TS -12.6950 90.3484 55 984 bom main 1554 1554 ______O__P__P_ -1 -12.7000 90.4000 30 55 984 4.00000 -12.6924 90.3225 TC 52 985 -12.6924 90.3225 TC 55 985 10 258
1974301S08105 1975 124 SI MM NORAH 1974-11-01 12:00:00 TS -12.8000 89.8000 50 988 bom main 1597 1597 ______O__O__O_ -1 -12.8000 89.8000 30 50 988 3.50000 -12.8000 89.8000 TC 50 988 -12.8000 89.8000 TC 50 988 10 258
1974301S08105 1975 124 SI MM NORAH 1974-11-01 15:00:00 TS -12.9050 89.3050 50 991 bom main 1641 1641 ______O__P__P_ -1 -12.9000 89.4000 30 50 991 3.50000 -12.9074 89.2575 TC 47 990 -12.9074 89.2575 TC 47 990 11 259
1974301S08105 1975 124 SI MM NORAH 1974-11-01 18:00:00 TS -13.0000 88.7000 45 992 bom main 1692 1692 ______O__O__O_ -1 -13.0000 88.7000 30 45 992 3.00000 -13.0000 88.7000 TC 45 992 -13.0000 88.7000 TC 45 992 11 263
1974301S08105 1975 124 SI MM NORAH 1974-11-01 21:00:00 TS -13.0382 88.1716 40 993 bom main 1729 1729 ______O__P__P_ -1 -13.0000 88.2000 30 40 993 3.00000 -13.0573 88.1574 TC 42 993 -13.0573 88.1574 TC 42 993 11 265
1974301S08105 1975 124 SI MM NORAH 1974-11-02 00:00:00 TS -13.1000 87.6000 40 994 bom main 1783 1783 ______O__O__O_ -1 -13.1000 87.6000 30 40 994 3.00000 -13.1000 87.6000 TC 40 994 -13.1000 87.6000 TC 40 994 11 265
1974301S08105 1975 124 SI MM NORAH 1974-11-02 03:00:00 TS -13.1382 87.0150 40 994 bom main 1830 1830 ______O__P__P_ -1 -13.1000 87.0000 30 40 994 3.00000 3.00000 -13.1573 87.0225 TC 40 993 -13.1573 87.0225 TC 40 993 12 265
1974301S08105 1975 124 SI MM NORAH 1974-11-02 06:00:00 TS -13.2000 86.4000 40 993 bom main 1885 1885 ______O__O__O_ -1 -13.2000 86.4000 30 40 993 3.00000 -13.2000 86.4000 TC 40 993 -13.2000 86.4000 TC 40 993 13 267
1974301S08105 1975 124 SI MM NORAH 1974-11-02 09:00:00 TS -13.2150 85.6717 35 994 bom main 1942 1942 ______O__P__P_ -1 -13.2000 85.6000 30 35 994 3.00000 -13.2225 85.7076 TC 40 994 -13.2225 85.7076 TC 40 994 14 270
1974301S08105 1975 124 SI MM NORAH 1974-11-02 12:00:00 TS -13.2000 85.0000 35 995 bom main 2001 2001 ______O__O__O_ -1 -13.2000 85.0000 30 35 995 3.00000 -13.2000 85.0000 TC 40 995 -13.2000 85.0000 TC 40 995 13 274
1974301S08105 1975 124 SI MM NORAH 1974-11-02 15:00:00 TS -13.1149 84.3283 30 998 bom main 2053 2053 ______O__P__P_ -1 -13.1000 84.3000 20 30 998 2.50000 -13.1223 84.3425 TC 37 996 -13.1223 84.3425 TC 37 996 13 279
1974301S08105 1975 124 SI MM NORAH 1974-11-02 18:00:00 TS -13.0000 83.7000 30 998 bom main 2099 2099 ______O__O__O_ -1 -13.0000 83.7000 20 30 998 2.50000 -13.0000 83.7000 TC 35 998 -13.0000 83.7000 TC 35 998 13 281
1974301S08105 1975 124 SI MM NORAH 1974-11-02 21:00:00 TS -12.8716 83.0283 30 998 bom main 2123 2093 ______O__P__P_ -1 -12.9000 83.0000 20 30 998 2.50000 -12.8574 83.0425 TC 32 998 -12.8574 83.0425 TC 32 998 13 283
1974301S08105 1975 124 SI MM NORAH 1974-11-03 00:00:00 TS -12.7000 82.4000 30 999 bom main 2093 2077 ______O__O__O_ -1 -12.7000 82.4000 20 30 999 2.50000 -12.7000 82.4000 TC 30 999 -12.7000 82.4000 TC 30 999 13 284
1974301S08105 1975 124 SI MM NORAH 1974-11-03 03:00:00 TS -12.5714 81.7818 30 999 bom main 2077 2051 ______O__P__P_ -1 -12.6000 81.7000 20 30 999 2.50000 -12.5571 81.8227 TC 30 999 -12.5571 81.8227 TC 30 999 12 284
1974301S08105 1975 124 SI MM NORAH 1974-11-03 06:00:00 TS -12.4000 81.2000 30 999 bom main 2051 2028 ______O__O__O_ -1 -12.4000 81.2000 20 30 999 2.50000 -12.4000 81.2000 TC 30 999 -12.4000 81.2000 TC 30 999 14 285
1974301S08105 1975 124 SI MM NORAH 1974-11-03 09:00:00 TS -12.2101 80.4050 30 1000 bom main 2028 2008 ______O__P__P_ -1 -12.2000 80.4000 20 30 1000 2.50000 -12.2152 80.4075 TC 30 1000 -12.2152 80.4075 TC 27 1000 16 284
1974301S08105 1975 124 SI MM NORAH 1974-11-03 12:00:00 TS -12.0000 79.6000 main 2008 1979 ______O__O__O_ -1 -12.0000 79.6000 20 25 1001 2.00000 -12.0000 79.6000 TC 30 1001 -12.0000 79.6000 TC 25 1001 15 289
1974301S08105 1975 124 SI MM NORAH 1974-11-03 15:00:00 TS -11.7230 78.9383 main 1980 1963 ______O__P__P_ -1 -11.7000 78.9000 20 25 1002 2.00000 -11.7345 78.9575 TC 27 1001 -11.7345 78.9575 TC 25 1001 14 291
1974301S08105 1975 124 SI MM NORAH 1974-11-03 18:00:00 TS -11.5000 78.3000 main 1966 1958 ______O__O__O_ -1 -11.5000 78.3000 20 25 1002 2.00000 -11.5000 78.3000 TC 25 1002 -11.5000 78.3000 TC 25 1002 15 284
1974301S08105 1975 124 SI MM NORAH 1974-11-03 21:00:00 TS -11.3789 77.4983 main 1968 1963 ______O__P__P_ -1 -11.4000 77.5000 20 25 1003 1.50000 -11.3683 77.4975 TC 22 1003 -11.3683 77.4975 TC 22 1003 17 277
1974301S08105 1975 124 SI MM NORAH 1974-11-04 00:00:00 TS -11.3000 76.6000 main 1977 ______O__O__O_ -1 -11.3000 76.6000 20 25 1004 1.50000 -11.3000 76.6000 TC 20 1004 -11.3000 76.6000 TC 20 1004 18 275

IBTrACS Databaseについて

本データベースは、米国NOAAが公開する1842年以降の世界の熱帯低気圧のベストトラックデータアーカイブInternational Best Track Archive for Climate Stewardship (IBTrACS)を、ウェブで閲覧しやすい形式に変換したものです。

最終更新日:2021-10-25